createdAt,value
2017-10-28T00:01:47.519Z,9.10
2017-10-28T00:04:14.057Z,9.10
2017-10-28T00:06:40.430Z,9.20
2017-10-28T00:09:06.819Z,9.30
2017-10-28T00:11:33.201Z,9.30
2017-10-28T00:14:00.333Z,9.20
2017-10-28T00:16:26.722Z,9.20
2017-10-28T00:18:53.092Z,9.20
2017-10-28T00:21:19.470Z,9.20
2017-10-28T00:23:45.866Z,9.30
2017-10-28T00:26:12.264Z,9.30
2017-10-28T00:28:38.654Z,9.30
2017-10-28T00:31:11.902Z,9.30
2017-10-28T00:33:44.374Z,9.30
2017-10-28T00:36:13.910Z,9.30
2017-10-28T00:38:41.107Z,9.50
2017-10-28T00:41:07.515Z,9.40
2017-10-28T00:43:34.648Z,9.20
2017-10-28T00:46:01.780Z,9.30
2017-10-28T00:48:29.643Z,9.20
2017-10-28T00:50:56.267Z,9.20
2017-10-28T00:53:22.664Z,9.20
2017-10-28T00:55:49.043Z,9.20
2017-10-28T00:58:16.924Z,9.20
2017-10-28T01:00:44.076Z,9.20
2017-10-28T01:03:11.195Z,9.30
2017-10-28T01:05:37.832Z,9.30
2017-10-28T01:08:04.212Z,9.30
2017-10-28T01:10:30.618Z,9.20
2017-10-28T01:12:57.724Z,9.30
2017-10-28T01:15:24.106Z,9.30
2017-10-28T01:17:50.488Z,9.20
2017-10-28T01:20:16.911Z,9.20
2017-10-28T01:22:43.331Z,9.20
2017-10-28T01:25:09.781Z,9.20
2017-10-28T01:27:36.159Z,9.20
2017-10-28T01:30:02.603Z,9.20
2017-10-28T01:32:29.768Z,9.10
2017-10-28T01:34:56.889Z,9.10
2017-10-28T01:37:23.305Z,9.10
2017-10-28T01:39:49.691Z,9.20
2017-10-28T01:42:16.223Z,9.20
2017-10-28T01:44:42.630Z,9.20
2017-10-28T01:47:09.778Z,9.30
2017-10-28T01:49:36.247Z,9.30
2017-10-28T01:52:02.680Z,9.20
2017-10-28T01:54:29.074Z,9.30
2017-10-28T01:56:56.938Z,9.30
2017-10-28T01:59:24.805Z,9.20
2017-10-28T02:01:52.670Z,9.20
2017-10-28T02:04:19.818Z,9.10
2017-10-28T02:06:46.975Z,9.20
2017-10-28T02:09:13.355Z,9.20
2017-10-28T02:11:39.754Z,9.20
2017-10-28T02:14:06.884Z,9.30
2017-10-28T02:16:34.788Z,9.20
2017-10-28T02:19:01.181Z,9.20
2017-10-28T02:21:27.568Z,9.10
2017-10-28T02:23:53.983Z,9.20
2017-10-28T02:26:20.349Z,9.20
2017-10-28T02:28:46.725Z,9.10
2017-10-28T02:31:13.863Z,9.20
2017-10-28T02:33:40.257Z,9.20
2017-10-28T02:36:06.668Z,9.30
2017-10-28T02:38:33.056Z,9.40
2017-10-28T02:40:59.433Z,9.40
2017-10-28T02:43:25.831Z,9.50
2017-10-28T02:45:52.965Z,9.50
2017-10-28T02:48:20.379Z,9.60
2017-10-28T02:50:46.775Z,9.60
2017-10-28T02:53:13.914Z,9.70
2017-10-28T02:55:41.024Z,9.70
2017-10-28T02:58:07.417Z,9.70
2017-10-28T03:00:33.844Z,9.80
2017-10-28T03:03:00.975Z,9.70
2017-10-28T03:05:27.379Z,9.60
2017-10-28T03:07:53.803Z,9.60
2017-10-28T03:10:20.252Z,9.60
2017-10-28T03:12:46.668Z,9.60
2017-10-28T03:15:13.074Z,9.70
2017-10-28T03:17:39.565Z,9.50
2017-10-28T03:20:06.717Z,9.30
2017-10-28T03:22:33.088Z,9.30
2017-10-28T03:24:59.451Z,9.40
2017-10-28T03:27:25.840Z,9.40
2017-10-28T03:29:52.239Z,9.50
2017-10-28T03:32:19.359Z,9.50
2017-10-28T03:34:45.746Z,9.40
2017-10-28T03:37:12.854Z,9.40
2017-10-28T03:39:39.260Z,9.30
2017-10-28T03:42:05.632Z,9.20
2017-10-28T03:44:33.533Z,9.30
2017-10-28T03:47:00.667Z,9.20
2017-10-28T03:49:27.935Z,9.20
2017-10-28T03:51:54.310Z,9.20
2017-10-28T03:54:20.720Z,9.30
2017-10-28T03:56:47.132Z,9.40
2017-10-28T03:59:20.432Z,9.40
2017-10-28T04:01:46.845Z,9.30
2017-10-28T04:04:13.995Z,9.40
2017-10-28T04:06:41.135Z,9.40
2017-10-28T04:09:07.511Z,9.40
2017-10-28T04:11:33.922Z,9.40
2017-10-28T04:14:00.287Z,9.30
2017-10-28T04:16:26.664Z,9.30
2017-10-28T04:18:53.040Z,9.20
2017-10-28T04:21:19.419Z,9.20
2017-10-28T04:23:45.791Z,9.20
2017-10-28T04:26:12.153Z,9.30
2017-10-28T04:28:38.559Z,9.30
2017-10-28T04:31:04.944Z,9.40
2017-10-28T04:33:31.408Z,9.40
2017-10-28T04:35:58.547Z,9.50
2017-10-28T04:38:25.677Z,9.50
2017-10-28T04:40:52.859Z,9.50
2017-10-28T04:43:19.223Z,9.40
2017-10-28T04:45:45.599Z,9.40
2017-10-28T04:48:11.980Z,9.30
2017-10-28T04:50:38.394Z,9.30
2017-10-28T04:53:04.791Z,9.30
2017-10-28T04:55:31.221Z,9.50
2017-10-28T04:57:57.671Z,9.40
2017-10-28T05:00:24.817Z,9.40
2017-10-28T05:02:51.962Z,9.40
2017-10-28T05:05:19.115Z,9.40
2017-10-28T05:07:46.261Z,9.40
2017-10-28T05:10:13.433Z,9.40
2017-10-28T05:12:40.612Z,9.40
2017-10-28T05:15:07.051Z,9.40
2017-10-28T05:17:33.454Z,9.50
2017-10-28T05:19:59.865Z,9.50
2017-10-28T05:22:27.037Z,9.50
2017-10-28T05:24:53.411Z,9.50
2017-10-28T05:27:19.895Z,9.60
2017-10-28T05:29:46.339Z,9.60
2017-10-28T05:32:12.751Z,9.70
2017-10-28T05:34:39.167Z,9.60
2017-10-28T05:37:05.569Z,9.60
2017-10-28T05:39:31.949Z,9.60
2017-10-28T05:41:59.142Z,9.60
2017-10-28T05:44:25.595Z,9.60
2017-10-28T05:46:52.023Z,9.50
2017-10-28T05:49:18.451Z,9.40
2017-10-28T05:51:44.899Z,9.30
2017-10-28T05:54:12.803Z,9.30
2017-10-28T05:56:39.959Z,9.40
2017-10-28T05:59:06.397Z,9.40
2017-10-28T06:01:33.028Z,9.60
2017-10-28T06:03:59.454Z,9.60
2017-10-28T06:06:26.586Z,9.60
2017-10-28T06:08:53.759Z,9.50
2017-10-28T06:11:20.160Z,9.50
2017-10-28T06:13:46.533Z,9.60
2017-10-28T06:16:12.981Z,9.60
2017-10-28T06:18:39.376Z,9.60
2017-10-28T06:21:06.562Z,9.50
2017-10-28T06:23:32.963Z,9.50
2017-10-28T06:26:00.079Z,9.60
2017-10-28T06:28:26.466Z,9.60
2017-10-28T06:30:52.863Z,9.60
2017-10-28T06:33:19.257Z,9.50
2017-10-28T06:35:45.651Z,9.50
2017-10-28T06:38:12.672Z,9.50
2017-10-28T06:40:39.805Z,9.50
2017-10-28T06:43:07.722Z,9.50
2017-10-28T06:45:34.181Z,9.50
2017-10-28T06:48:00.544Z,9.60
2017-10-28T06:50:28.418Z,9.80
2017-10-28T06:52:54.797Z,9.80
2017-10-28T06:55:21.181Z,9.80
2017-10-28T06:57:48.312Z,9.70
2017-10-28T07:00:14.688Z,9.70
2017-10-28T07:02:41.156Z,9.70
2017-10-28T07:05:07.535Z,9.70
2017-10-28T07:07:34.655Z,9.80
2017-10-28T07:10:01.083Z,9.80
2017-10-28T07:12:27.573Z,9.80
2017-10-28T07:14:54.079Z,10.10
2017-10-28T07:17:20.503Z,10.10
2017-10-28T07:19:48.374Z,9.90
2017-10-28T07:22:14.768Z,9.90
2017-10-28T07:24:41.168Z,9.90
2017-10-28T07:27:08.290Z,10.10
2017-10-28T07:29:34.707Z,10.10
2017-10-28T07:32:02.582Z,10.20
2017-10-28T07:34:29.002Z,10.20
2017-10-28T07:36:55.371Z,10.30
2017-10-28T07:39:22.459Z,10.20
2017-10-28T07:41:48.839Z,10.20
2017-10-28T07:44:15.210Z,10.30
2017-10-28T07:46:41.617Z,10.40
2017-10-28T07:49:08.741Z,10.20
2017-10-28T07:51:36.627Z,10.20
2017-10-28T07:54:03.757Z,10.20
2017-10-28T07:56:31.615Z,10.20
2017-10-28T07:58:59.506Z,10.00
2017-10-28T08:01:26.631Z,10.10
2017-10-28T08:03:59.138Z,10.10
2017-10-28T08:06:26.323Z,10.00
2017-10-28T08:08:52.734Z,10.00
2017-10-28T08:11:19.153Z,10.10
2017-10-28T08:13:46.259Z,10.30
2017-10-28T08:16:12.659Z,10.30
2017-10-28T08:18:39.075Z,10.20
2017-10-28T08:21:06.208Z,10.30
2017-10-28T08:23:32.598Z,10.30
2017-10-28T08:25:58.963Z,10.20
2017-10-28T08:28:26.088Z,10.10
2017-10-28T08:30:52.470Z,10.10
2017-10-28T08:33:19.579Z,10.40
2017-10-28T08:35:45.951Z,10.40
2017-10-28T08:38:12.348Z,10.30
2017-10-28T08:40:40.251Z,10.30
2017-10-28T08:43:06.652Z,10.30
2017-10-28T08:45:33.064Z,10.10
2017-10-28T08:47:59.458Z,9.90
2017-10-28T08:50:25.886Z,10.00
2017-10-28T08:52:52.301Z,10.10
2017-10-28T08:55:19.440Z,10.40
2017-10-28T08:57:46.611Z,10.40
2017-10-28T09:00:13.713Z,10.30
2017-10-28T09:02:40.086Z,10.30
2017-10-28T09:05:06.482Z,10.20
2017-10-28T09:07:33.660Z,10.30
2017-10-28T09:10:00.931Z,10.40
2017-10-28T09:12:28.155Z,10.40
2017-10-28T09:14:54.539Z,10.30
2017-10-28T09:17:20.972Z,10.30
2017-10-28T09:19:47.379Z,10.30
2017-10-28T09:22:13.856Z,10.40
2017-10-28T09:24:40.250Z,10.30
2017-10-28T09:27:06.626Z,10.50
2017-10-28T09:29:33.049Z,10.60
2017-10-28T09:31:59.450Z,10.40
2017-10-28T09:34:25.838Z,10.50
2017-10-28T09:36:52.209Z,10.60
2017-10-28T09:39:18.590Z,10.60
2017-10-28T09:41:45.713Z,10.70
2017-10-28T09:44:12.116Z,10.70
2017-10-28T09:46:38.524Z,10.70
2017-10-28T09:49:05.623Z,11.00
2017-10-28T09:51:31.975Z,11.00
2017-10-28T09:53:58.371Z,10.90
2017-10-28T09:56:24.831Z,10.70
2017-10-28T09:58:51.238Z,10.50
2017-10-28T10:01:17.648Z,10.30
2017-10-28T10:03:44.776Z,10.10
2017-10-28T10:06:11.173Z,10.00
2017-10-28T10:08:37.558Z,10.00
2017-10-28T10:11:04.845Z,10.40
2017-10-28T10:13:31.310Z,10.40
2017-10-28T10:15:57.696Z,10.60
2017-10-28T10:18:24.086Z,10.50
2017-10-28T10:20:50.493Z,10.40
2017-10-28T10:23:16.894Z,10.30
2017-10-28T10:25:43.291Z,10.10
2017-10-28T10:28:09.685Z,10.00
2017-10-28T10:30:36.290Z,9.90
2017-10-28T10:33:02.693Z,9.80
2017-10-28T10:35:29.848Z,9.90
2017-10-28T10:37:56.955Z,9.90
2017-10-28T10:40:23.345Z,9.90
2017-10-28T10:42:50.498Z,9.80
2017-10-28T10:45:17.055Z,9.80
2017-10-28T10:47:43.440Z,9.70
2017-10-28T10:50:10.568Z,9.70
2017-10-28T10:52:36.946Z,9.70
2017-10-28T10:55:03.377Z,9.80
2017-10-28T10:57:30.826Z,10.10
2017-10-28T10:59:58.004Z,10.00
2017-10-28T11:02:24.403Z,10.00
2017-10-28T11:04:50.840Z,10.10
2017-10-28T11:07:17.965Z,10.10
2017-10-28T11:09:44.338Z,10.10
2017-10-28T11:12:10.734Z,10.10
2017-10-28T11:14:37.205Z,10.00
2017-10-28T11:17:03.593Z,10.10
2017-10-28T11:19:30.045Z,10.10
2017-10-28T11:21:57.215Z,9.80
2017-10-28T11:24:23.633Z,9.80
2017-10-28T11:26:50.752Z,9.90
2017-10-28T11:29:17.138Z,10.00
2017-10-28T11:31:43.593Z,10.00
2017-10-28T11:34:09.999Z,10.00
2017-10-28T11:36:36.392Z,10.10
2017-10-28T11:39:02.857Z,10.00
2017-10-28T11:41:29.269Z,10.00
2017-10-28T11:43:56.388Z,10.40
2017-10-28T11:46:22.770Z,10.40
2017-10-28T11:48:49.875Z,10.30
2017-10-28T11:51:16.265Z,10.30
2017-10-28T11:53:42.659Z,10.20
2017-10-28T11:56:09.795Z,10.10
2017-10-28T11:58:36.217Z,10.10
2017-10-28T12:01:02.633Z,10.20
2017-10-28T12:03:29.002Z,10.20
2017-10-28T12:05:55.393Z,10.20
2017-10-28T12:08:21.765Z,10.20
2017-10-28T12:10:48.163Z,10.30
2017-10-28T12:13:14.575Z,10.30
2017-10-28T12:15:40.958Z,10.40
2017-10-28T12:18:07.343Z,10.10
2017-10-28T12:20:33.776Z,10.00
2017-10-28T12:23:00.176Z,10.00
2017-10-28T12:25:27.311Z,10.30
2017-10-28T12:27:54.440Z,10.30
2017-10-28T12:30:20.898Z,10.30
2017-10-28T12:32:48.086Z,10.30
2017-10-28T12:35:14.487Z,10.30
2017-10-28T12:37:40.903Z,10.30
2017-10-28T12:40:07.301Z,10.30
2017-10-28T12:42:33.706Z,10.20
2017-10-28T12:45:00.136Z,10.20
2017-10-28T12:47:26.517Z,10.20
2017-10-28T12:49:52.893Z,10.20
2017-10-28T12:52:20.020Z,10.30
2017-10-28T12:54:46.404Z,10.20
2017-10-28T12:57:12.791Z,10.20
2017-10-28T12:59:39.151Z,10.10
2017-10-28T13:02:05.535Z,10.10
2017-10-28T13:04:31.964Z,10.10
2017-10-28T13:06:58.391Z,10.10
2017-10-28T13:09:24.772Z,10.10
2017-10-28T13:11:51.167Z,10.10
2017-10-28T13:14:18.281Z,10.30
2017-10-28T13:16:44.684Z,10.30
2017-10-28T13:19:11.083Z,10.40
2017-10-28T13:21:37.468Z,10.40
2017-10-28T13:24:03.973Z,10.30
2017-10-28T13:26:31.112Z,10.20
2017-10-28T13:28:58.283Z,10.10
2017-10-28T13:31:25.459Z,10.10
2017-10-28T13:33:51.870Z,10.10
2017-10-28T13:36:18.245Z,10.20
2017-10-28T13:38:44.648Z,10.10
2017-10-28T13:41:11.329Z,10.10
2017-10-28T13:43:37.733Z,10.10
2017-10-28T13:46:04.116Z,10.00
2017-10-28T13:48:31.237Z,10.00
2017-10-28T13:50:57.636Z,10.00
2017-10-28T13:53:24.026Z,10.10
2017-10-28T13:55:51.159Z,9.90
2017-10-28T13:58:18.279Z,9.90
2017-10-28T14:00:44.643Z,9.90
2017-10-28T14:03:12.492Z,9.80
2017-10-28T14:05:38.917Z,9.80
2017-10-28T14:08:05.311Z,9.80
2017-10-28T14:10:31.683Z,10.00
2017-10-28T14:12:58.051Z,9.90
2017-10-28T14:15:24.414Z,9.90
2017-10-28T14:17:50.834Z,9.80
2017-10-28T14:20:17.212Z,9.90
2017-10-28T14:22:43.664Z,9.90
2017-10-28T14:25:10.047Z,10.00
2017-10-28T14:27:36.533Z,9.90
2017-10-28T14:30:02.968Z,9.90
2017-10-28T14:32:29.402Z,9.80
2017-10-28T14:34:55.825Z,9.80
2017-10-28T14:37:22.255Z,9.90
2017-10-28T14:39:49.419Z,9.90
2017-10-28T14:42:15.865Z,9.80
2017-10-28T14:44:42.298Z,9.80
2017-10-28T14:47:09.500Z,9.90
2017-10-28T14:49:35.903Z,9.90
2017-10-28T14:52:02.292Z,9.90
2017-10-28T14:54:28.695Z,9.90
2017-10-28T14:56:55.093Z,9.80
2017-10-28T14:59:21.553Z,9.80
2017-10-28T15:01:47.976Z,9.80
2017-10-28T15:04:14.426Z,9.80
2017-10-28T15:06:40.873Z,9.80
2017-10-28T15:09:07.274Z,9.80
2017-10-28T15:11:33.648Z,9.80
2017-10-28T15:14:00.037Z,9.80
2017-10-28T15:16:26.427Z,9.70
2017-10-28T15:18:52.825Z,9.90
2017-10-28T15:21:19.229Z,9.90
2017-10-28T15:23:45.629Z,10.00
2017-10-28T15:26:12.770Z,10.00
2017-10-28T15:28:39.905Z,10.00
2017-10-28T15:31:07.003Z,10.10
2017-10-28T15:33:34.172Z,10.10
2017-10-28T15:36:00.630Z,10.10
2017-10-28T15:38:27.805Z,10.00
2017-10-28T15:40:54.222Z,10.00
2017-10-28T15:43:20.629Z,10.10
2017-10-28T15:45:47.032Z,10.10
2017-10-28T15:48:13.430Z,9.90
2017-10-28T15:50:39.820Z,9.70
2017-10-28T15:53:06.219Z,9.80
2017-10-28T15:55:33.357Z,10.00
2017-10-28T15:58:00.486Z,10.00
2017-10-28T16:00:28.354Z,9.90
2017-10-28T16:02:54.724Z,9.90
2017-10-28T16:05:21.108Z,10.00
2017-10-28T16:07:47.482Z,10.00
2017-10-28T16:10:13.874Z,9.90
2017-10-28T16:12:40.991Z,9.70
2017-10-28T16:15:07.407Z,9.60
2017-10-28T16:17:33.809Z,9.50
2017-10-28T16:20:00.915Z,9.40
2017-10-28T16:22:27.300Z,9.30
2017-10-28T16:24:53.690Z,9.20
2017-10-28T16:27:20.145Z,9.30
2017-10-28T16:29:47.303Z,9.40
2017-10-28T16:32:13.727Z,9.40
2017-10-28T16:34:40.168Z,9.40
2017-10-28T16:37:07.296Z,9.30
2017-10-28T16:39:33.706Z,9.30
2017-10-28T16:42:00.080Z,9.30
2017-10-28T16:44:26.477Z,9.40
2017-10-28T16:46:52.871Z,9.50
2017-10-28T16:49:19.272Z,9.50
2017-10-28T16:51:45.655Z,9.50
2017-10-28T16:54:12.032Z,9.50
2017-10-28T16:56:39.907Z,9.50
2017-10-28T16:59:07.056Z,9.40
2017-10-28T17:01:34.187Z,9.30
2017-10-28T17:04:02.141Z,9.30
2017-10-28T17:06:28.535Z,9.30
2017-10-28T17:08:54.903Z,9.40
2017-10-28T17:11:21.297Z,9.30
2017-10-28T17:13:47.693Z,9.20
2017-10-28T17:16:14.098Z,9.40
2017-10-28T17:18:40.519Z,9.30
2017-10-28T17:21:06.896Z,9.20
2017-10-28T17:23:34.020Z,9.20
2017-10-28T17:26:00.403Z,9.20
2017-10-28T17:28:26.836Z,9.20
2017-10-28T17:30:53.999Z,9.20
2017-10-28T17:33:20.395Z,9.20
2017-10-28T17:35:46.833Z,9.20
2017-10-28T17:38:14.055Z,9.10
2017-10-28T17:40:41.405Z,9.00
2017-10-28T17:43:07.803Z,9.00
2017-10-28T17:45:34.169Z,9.10
2017-10-28T17:48:00.555Z,9.10
2017-10-28T17:50:26.947Z,9.20
2017-10-28T17:52:54.815Z,9.10
2017-10-28T17:55:22.668Z,9.10
2017-10-28T17:57:49.056Z,9.10
2017-10-28T18:00:15.471Z,9.10
2017-10-28T18:02:42.603Z,8.80
2017-10-28T18:05:08.988Z,8.80
2017-10-28T18:07:35.394Z,9.00
2017-10-28T18:10:02.610Z,9.00
2017-10-28T18:12:30.510Z,9.00
2017-10-28T18:14:57.626Z,9.00
2017-10-28T18:17:24.020Z,9.00
2017-10-28T18:19:50.423Z,8.90
2017-10-28T18:22:17.556Z,9.00
2017-10-28T18:24:43.923Z,9.00
2017-10-28T18:27:10.367Z,9.10
2017-10-28T18:29:36.748Z,8.90
2017-10-28T18:32:03.892Z,9.10
2017-10-28T18:34:30.283Z,9.00
2017-10-28T18:36:56.677Z,9.00
2017-10-28T18:39:23.834Z,9.10
2017-10-28T18:41:50.268Z,9.10
2017-10-28T18:44:16.876Z,9.00
2017-10-28T18:46:44.025Z,9.20
2017-10-28T18:49:11.195Z,9.20
2017-10-28T18:51:37.564Z,9.20
2017-10-28T18:54:04.006Z,9.10
2017-10-28T18:56:30.403Z,9.00
2017-10-28T18:58:57.577Z,8.90
2017-10-28T19:01:23.997Z,8.90
2017-10-28T19:03:50.433Z,9.00
2017-10-28T19:06:16.844Z,9.10
2017-10-28T19:08:43.244Z,9.20
2017-10-28T19:11:09.618Z,9.30
2017-10-28T19:13:35.995Z,9.20
2017-10-28T19:16:02.388Z,9.30
2017-10-28T19:18:28.817Z,9.20
2017-10-28T19:20:55.259Z,9.10
2017-10-28T19:23:21.677Z,9.20
2017-10-28T19:25:48.064Z,9.40
2017-10-28T19:28:14.465Z,9.50
2017-10-28T19:30:40.847Z,9.40
2017-10-28T19:33:07.214Z,9.30
2017-10-28T19:35:33.654Z,9.20
2017-10-28T19:38:00.058Z,9.20
2017-10-28T19:40:27.276Z,9.20
2017-10-28T19:42:55.274Z,9.20
2017-10-28T19:45:22.441Z,9.20
2017-10-28T19:47:48.891Z,9.20
2017-10-28T19:50:15.363Z,9.30
2017-10-28T19:52:42.487Z,9.40
2017-10-28T19:55:08.908Z,9.40
2017-10-28T19:57:35.290Z,9.40
2017-10-28T20:00:01.667Z,9.30
2017-10-28T20:02:28.084Z,9.20
2017-10-28T20:04:54.486Z,9.10
2017-10-28T20:07:21.773Z,9.10
2017-10-28T20:09:48.208Z,8.90
2017-10-28T20:12:14.610Z,8.90
2017-10-28T20:14:40.985Z,8.70
2017-10-28T20:17:07.409Z,8.70
2017-10-28T20:19:33.821Z,8.70
2017-10-28T20:22:01.020Z,8.80
2017-10-28T20:24:27.439Z,8.70
2017-10-28T20:26:53.868Z,8.70
2017-10-28T20:29:20.322Z,8.60
2017-10-28T20:31:46.733Z,8.60
2017-10-28T20:34:13.103Z,8.50
2017-10-28T20:36:41.026Z,8.40
2017-10-28T20:39:07.469Z,8.30
2017-10-28T20:41:33.898Z,8.20
2017-10-28T20:44:00.279Z,8.10
2017-10-28T20:46:26.690Z,8.20
2017-10-28T20:48:53.135Z,8.10
2017-10-28T20:51:20.429Z,8.20
2017-10-28T20:53:47.594Z,8.30
2017-10-28T20:56:14.013Z,8.30
2017-10-28T20:58:41.115Z,8.10
2017-10-28T21:01:07.492Z,8.10
2017-10-28T21:03:33.874Z,8.20
2017-10-28T21:06:00.269Z,8.00
2017-10-28T21:08:26.662Z,8.00
2017-10-28T21:10:53.083Z,7.90
2017-10-28T21:13:20.967Z,7.90
2017-10-28T21:15:47.346Z,7.80
2017-10-28T21:18:13.738Z,7.80
2017-10-28T21:20:40.203Z,7.80
2017-10-28T21:23:06.651Z,7.90
2017-10-28T21:25:33.045Z,7.90
2017-10-28T21:28:00.203Z,7.90
2017-10-28T21:30:26.598Z,7.90
2017-10-28T21:32:54.504Z,8.00
2017-10-28T21:35:20.892Z,8.00
2017-10-28T21:37:47.330Z,8.10
2017-10-28T21:40:15.200Z,8.10
2017-10-28T21:42:42.340Z,8.00
2017-10-28T21:45:08.741Z,8.00
2017-10-28T21:47:35.119Z,8.00
2017-10-28T21:50:03.010Z,8.00
2017-10-28T21:52:29.484Z,8.00
2017-10-28T21:54:55.877Z,8.10
2017-10-28T21:57:22.277Z,8.20
2017-10-28T21:59:48.662Z,8.30
2017-10-28T22:02:15.071Z,8.20
2017-10-28T22:04:41.472Z,8.10
2017-10-28T22:07:09.331Z,8.00
2017-10-28T22:09:35.722Z,8.00
2017-10-28T22:12:02.188Z,8.10
2017-10-28T22:14:28.582Z,7.90
2017-10-28T22:16:54.967Z,7.90
2017-10-28T22:19:22.856Z,7.70
2017-10-28T22:21:49.985Z,7.80
2017-10-28T22:24:17.862Z,7.60
2017-10-28T22:26:44.236Z,7.60
2017-10-28T22:29:10.652Z,7.50
2017-10-28T22:31:37.043Z,7.50
2017-10-28T22:34:03.413Z,7.60
2017-10-28T22:36:30.537Z,7.60
2017-10-28T22:38:57.716Z,7.60
2017-10-28T22:41:24.119Z,7.50
2017-10-28T22:43:51.243Z,7.40
2017-10-28T22:46:17.651Z,7.40
2017-10-28T22:48:44.090Z,7.40
2017-10-28T22:51:10.519Z,7.50
2017-10-28T22:53:36.985Z,7.40
2017-10-28T22:56:03.438Z,7.40
2017-10-28T22:58:30.580Z,7.40
2017-10-28T23:00:57.703Z,7.40
2017-10-28T23:03:24.115Z,7.40
2017-10-28T23:05:50.648Z,7.50
2017-10-28T23:08:17.052Z,7.50
2017-10-28T23:10:44.181Z,7.40
2017-10-28T23:13:11.312Z,7.40
2017-10-28T23:15:38.494Z,7.40
2017-10-28T23:18:05.594Z,7.20
2017-10-28T23:20:31.998Z,7.20
2017-10-28T23:22:58.469Z,7.20
2017-10-28T23:25:24.892Z,7.20
2017-10-28T23:27:51.279Z,7.20
2017-10-28T23:30:18.400Z,7.10
2017-10-28T23:32:45.524Z,7.10
2017-10-28T23:35:11.887Z,7.10
2017-10-28T23:37:39.764Z,7.00
2017-10-28T23:40:06.898Z,7.00
2017-10-28T23:42:33.341Z,7.00
2017-10-28T23:45:00.542Z,6.90
2017-10-28T23:47:26.965Z,6.90
2017-10-28T23:49:53.364Z,7.00
2017-10-28T23:52:20.484Z,7.00
2017-10-28T23:54:46.862Z,7.00
2017-10-28T23:57:13.240Z,7.20
2017-10-28T23:59:39.618Z,7.20
